Albert City, Iowa
Current Conditions -  °F | °C
As of 8:55 AM on Friday 24 Oct 2014 (Local Time) from KSLB Reporting Station
Haze Haze  
Wind Chill: 14°   Ceiling: Unl
Heat Index: 14°   Visibility: 3mi
Dew Point: 13°   Wind: 13mph
Humidity: 94%   Direction: 220°SW
Pressure: 29.9"   Gusts: NA
Location:  42.78°N, 94.95°W
Report Text: KSLB 241355Z AUTO 22011KT 3SM BR FEW006 14/13 A2990 RMK AO2
Loading
Personal Weather Stations






























Interactive Weather Map
Tropical Storm Tracking
New forecast layout! Learn more

10-Day Weather Forecast

Advertisements
Track Severe Weather on mobile